PWSweather.com
Personal Weather Stations
Station Observations
IFREISTO2
Freiston, FreistonGB PE22 0QJ

FreistonFreistonGB PE22 0QJ

Lat: 52.964, Lon: 0.041

Elevation: 16

Station Type: Fine Offset

http://www.midlifedad.me.uk/weather

High Low Average
Temperature 48.7°F9.3°C 39.7°F4.3°C 44.5°F6.9°C
Dew Point 43.4°F6.3°C 32.8°F0.4°C 37.7°F3.2°C
Winds 11.6 mph 18.7 kmh Calm Calm 7.0 mph WNW11.3 kmh WNW
Wind Gusts 19.0 mph30.6 kmh 0.7 mph1.1 kmh 11.0 mph17.7 kmh
Humidity 85% 73% 77%
Pressure 30.70 in1039.6 mb 30.41 in1029.8 mb -
Precipitation 0.00 in0.0 mm - -
Hour Temp Dew Point Humidity Winds Wind Gusts Pressure Precip Precip Rate Daily Precip Total
12:00 AM 46.4°F8.0°C 38.9°F3.8°C 75% 10.1 mph W16.3 kmh W 15.9 mph25.6 kmh 30.43 in1030.5 mb 0.00 in0.0 mm 0.00 in0.0 mm 0.00 in0.0 mm
12:05 AM 46.4°F8.0°C 39.2°F4.0°C 76% 10.0 mph WSW16.1 kmh WSW 15.9 mph25.6 kmh 30.44 in1030.8 mb 0.00 in0.0 mm 0.00 in0.0 mm 0.00 in0.0 mm
12:10 AM 46.2°F7.9°C 38.7°F3.7°C 75% 10.0 mph WNW16.1 kmh WNW 15.2 mph24.5 kmh 30.44 in1030.8 mb 0.00 in0.0 mm 0.00 in0.0 mm 0.00 in0.0 mm
12:15 AM 46.0°F7.8°C 38.6°F3.7°C 75% 10.0 mph WNW16.1 kmh WNW 15.2 mph24.5 kmh 30.44 in1030.8 mb 0.00 in0.0 mm 0.00 in0.0 mm 0.00 in0.0 mm
12:20 AM 46.0°F7.8°C 38.9°F3.8°C 76% 10.5 mph W16.9 kmh W 15.9 mph25.6 kmh 30.43 in1030.5 mb 0.00 in0.0 mm 0.00 in0.0 mm 0.00 in0.0 mm
12:25 AM 45.9°F7.7°C 38.7°F3.7°C 76% 11.3 mph W18.2 kmh W 17.4 mph28.0 kmh 30.44 in1030.8 mb 0.00 in0.0 mm 0.00 in0.0 mm 0.00 in0.0 mm
12:30 AM 45.9°F7.7°C 38.7°F3.7°C 76% 11.3 mph WNW18.2 kmh WNW 17.4 mph28.0 kmh 30.44 in1030.8 mb 0.00 in0.0 mm 0.00 in0.0 mm 0.00 in0.0 mm
12:35 AM 45.7°F7.6°C 38.5°F3.6°C 76% 10.8 mph WNW17.4 kmh WNW 17.4 mph28.0 kmh 30.43 in1030.5 mb 0.00 in0.0 mm 0.00 in0.0 mm 0.00 in0.0 mm
12:40 AM 45.7°F7.6°C 38.9°F3.8°C 77% 10.4 mph W16.7 kmh W 15.2 mph24.5 kmh 30.44 in1030.8 mb 0.00 in0.0 mm 0.00 in0.0 mm 0.00 in0.0 mm
12:45 AM 45.9°F7.7°C 39.1°F3.9°C 77% 9.9 mph W15.9 kmh W 15.2 mph24.5 kmh 30.43 in1030.5 mb 0.00 in0.0 mm 0.00 in0.0 mm 0.00 in0.0 mm
12:50 AM 46.0°F7.8°C 38.9°F3.8°C 76% 10.3 mph WNW16.6 kmh WNW 18.3 mph29.5 kmh 30.43 in1030.5 mb 0.00 in0.0 mm 0.00 in0.0 mm 0.00 in0.0 mm
12:55 AM 46.2°F7.9°C 39.1°F3.9°C 76% 10.9 mph WSW17.5 kmh WSW 18.3 mph29.5 kmh 30.43 in1030.5 mb 0.00 in0.0 mm 0.00 in0.0 mm 0.00 in0.0 mm
01:00 AM 46.0°F7.8°C 38.9°F3.8°C 76% 10.9 mph SW17.5 kmh SW 15.9 mph25.6 kmh 30.42 in1030.1 mb 0.00 in0.0 mm 0.00 in0.0 mm 0.00 in0.0 mm
01:05 AM 46.0°F7.8°C 38.9°F3.8°C 76% 11.1 mph WSW17.9 kmh WSW 15.9 mph25.6 kmh 30.42 in1030.1 mb 0.00 in0.0 mm 0.00 in0.0 mm 0.00 in0.0 mm
01:10 AM 46.0°F7.8°C 38.9°F3.8°C 76% 11.2 mph W18.0 kmh W 15.9 mph25.6 kmh 30.42 in1030.1 mb 0.00 in0.0 mm 0.00 in0.0 mm 0.00 in0.0 mm
01:15 AM 46.0°F7.8°C 38.9°F3.8°C 76% 10.6 mph WSW17.1 kmh WSW 16.8 mph27.0 kmh 30.42 in1030.1 mb 0.00 in0.0 mm 0.00 in0.0 mm 0.00 in0.0 mm
01:20 AM 46.0°F7.8°C 38.9°F3.8°C 76% 10.5 mph WSW16.9 kmh WSW 16.8 mph27.0 kmh 30.42 in1030.1 mb 0.00 in0.0 mm 0.00 in0.0 mm 0.00 in0.0 mm
01:25 AM 46.2°F7.9°C 39.1°F3.9°C 76% 10.2 mph WSW16.4 kmh WSW 14.5 mph23.3 kmh 30.42 in1030.1 mb 0.00 in0.0 mm 0.00 in0.0 mm 0.00 in0.0 mm
01:30 AM 46.4°F8.0°C 39.2°F4.0°C 76% 10.0 mph WSW16.1 kmh WSW 13.6 mph21.9 kmh 30.42 in1030.1 mb 0.00 in0.0 mm 0.00 in0.0 mm 0.00 in0.0 mm
01:35 AM 46.0°F7.8°C 38.9°F3.8°C 76% 9.0 mph WSW14.5 kmh WSW 13.6 mph21.9 kmh 30.42 in1030.1 mb 0.00 in0.0 mm 0.00 in0.0 mm 0.00 in0.0 mm
01:40 AM 46.0°F7.8°C 38.9°F3.8°C 76% 8.0 mph WSW12.9 kmh WSW 13.6 mph21.9 kmh 30.42 in1030.1 mb 0.00 in0.0 mm 0.00 in0.0 mm 0.00 in0.0 mm
01:45 AM 46.0°F7.8°C 38.9°F3.8°C 76% 8.4 mph WSW13.5 kmh WSW 14.5 mph23.3 kmh 30.42 in1030.1 mb 0.00 in0.0 mm 0.00 in0.0 mm 0.00 in0.0 mm
01:50 AM 46.0°F7.8°C 38.9°F3.8°C 76% 8.2 mph W13.2 kmh W 14.5 mph23.3 kmh 30.42 in1030.1 mb 0.00 in0.0 mm 0.00 in0.0 mm 0.00 in0.0 mm
01:55 AM 46.0°F7.8°C 38.9°F3.8°C 76% 7.6 mph NW12.2 kmh NW 14.5 mph23.3 kmh 30.42 in1030.1 mb 0.00 in0.0 mm 0.00 in0.0 mm 0.00 in0.0 mm
02:00 AM 46.0°F7.8°C 38.9°F3.8°C 76% 7.8 mph NW12.6 kmh NW 14.5 mph23.3 kmh 30.43 in1030.5 mb 0.00 in0.0 mm 0.00 in0.0 mm 0.00 in0.0 mm
02:05 AM 46.0°F7.8°C 38.9°F3.8°C 76% 8.2 mph WNW13.2 kmh WNW 15.2 mph24.5 kmh 30.42 in1030.1 mb 0.00 in0.0 mm 0.00 in0.0 mm 0.00 in0.0 mm
02:10 AM 46.0°F7.8°C 38.9°F3.8°C 76% 9.0 mph NW14.5 kmh NW 15.2 mph24.5 kmh 30.42 in1030.1 mb 0.00 in0.0 mm 0.00 in0.0 mm 0.00 in0.0 mm
02:15 AM 46.2°F7.9°C 39.1°F3.9°C 76% 9.4 mph WNW15.1 kmh WNW 15.2 mph24.5 kmh 30.42 in1030.1 mb 0.00 in0.0 mm 0.00 in0.0 mm 0.00 in0.0 mm
02:20 AM 46.2°F7.9°C 39.1°F3.9°C 76% 8.8 mph WNW14.2 kmh WNW 14.5 mph23.3 kmh 30.42 in1030.1 mb 0.00 in0.0 mm 0.00 in0.0 mm 0.00 in0.0 mm
02:25 AM 46.2°F7.9°C 39.1°F3.9°C 76% 8.4 mph NW13.5 kmh NW 14.5 mph23.3 kmh 30.42 in1030.1 mb 0.00 in0.0 mm 0.00 in0.0 mm 0.00 in0.0 mm
02:30 AM 46.2°F7.9°C 39.1°F3.9°C 76% 8.7 mph SW14.0 kmh SW 14.5 mph23.3 kmh 30.42 in1030.1 mb 0.00 in0.0 mm 0.00 in0.0 mm 0.00 in0.0 mm
02:35 AM 46.2°F7.9°C 39.1°F3.9°C 76% 8.8 mph W14.2 kmh W 14.5 mph23.3 kmh 30.42 in1030.1 mb 0.00 in0.0 mm 0.00 in0.0 mm 0.00 in0.0 mm
02:40 AM 46.0°F7.8°C 38.9°F3.8°C 76% 8.1 mph W13.0 kmh W 13.6 mph21.9 kmh 30.42 in1030.1 mb 0.00 in0.0 mm 0.00 in0.0 mm 0.00 in0.0 mm
02:45 AM 46.0°F7.8°C 38.9°F3.8°C 76% 7.1 mph WSW11.4 kmh WSW 12.1 mph19.5 kmh 30.43 in1030.5 mb 0.00 in0.0 mm 0.00 in0.0 mm 0.00 in0.0 mm
02:50 AM 46.0°F7.8°C 38.9°F3.8°C 76% 6.3 mph W10.1 kmh W 11.4 mph18.3 kmh 30.42 in1030.1 mb 0.00 in0.0 mm 0.00 in0.0 mm 0.00 in0.0 mm
02:55 AM 46.0°F7.8°C 38.9°F3.8°C 76% 6.9 mph WSW11.1 kmh WSW 13.6 mph21.9 kmh 30.43 in1030.5 mb 0.00 in0.0 mm 0.00 in0.0 mm 0.00 in0.0 mm
03:00 AM 46.0°F7.8°C 38.9°F3.8°C 76% 7.8 mph W12.6 kmh W 14.5 mph23.3 kmh 30.43 in1030.5 mb 0.00 in0.0 mm 0.00 in0.0 mm 0.00 in0.0 mm
03:05 AM 45.9°F7.7°C 38.7°F3.7°C 76% 8.1 mph NNW13.0 kmh NNW 14.5 mph23.3 kmh 30.42 in1030.1 mb 0.00 in0.0 mm 0.00 in0.0 mm 0.00 in0.0 mm
03:10 AM 45.9°F7.7°C 39.1°F3.9°C 77% 8.7 mph NW14.0 kmh NW 15.2 mph24.5 kmh 30.42 in1030.1 mb 0.00 in0.0 mm 0.00 in0.0 mm 0.00 in0.0 mm
03:15 AM 45.9°F7.7°C 39.1°F3.9°C 77% 9.2 mph W14.8 kmh W 15.2 mph24.5 kmh 30.43 in1030.5 mb 0.00 in0.0 mm 0.00 in0.0 mm 0.00 in0.0 mm
03:20 AM 46.0°F7.8°C 39.2°F4.0°C 77% 9.0 mph W14.5 kmh W 15.2 mph24.5 kmh 30.43 in1030.5 mb 0.00 in0.0 mm 0.00 in0.0 mm 0.00 in0.0 mm
03:25 AM 46.0°F7.8°C 39.2°F4.0°C 77% 8.2 mph W13.2 kmh W 15.2 mph24.5 kmh 30.43 in1030.5 mb 0.00 in0.0 mm 0.00 in0.0 mm 0.00 in0.0 mm
03:30 AM 46.0°F7.8°C 39.2°F4.0°C 77% 8.3 mph WNW13.4 kmh WNW 15.2 mph24.5 kmh 30.43 in1030.5 mb 0.00 in0.0 mm 0.00 in0.0 mm 0.00 in0.0 mm
03:35 AM 46.2°F7.9°C 39.4°F4.1°C 77% 9.7 mph WNW15.6 kmh WNW 16.8 mph27.0 kmh 30.43 in1030.5 mb 0.00 in0.0 mm 0.00 in0.0 mm 0.00 in0.0 mm
03:40 AM 46.2°F7.9°C 39.4°F4.1°C 77% 10.4 mph WSW16.7 kmh WSW 18.3 mph29.5 kmh 30.43 in1030.5 mb 0.00 in0.0 mm 0.00 in0.0 mm 0.00 in0.0 mm
03:45 AM 46.4°F8.0°C 39.6°F4.2°C 77% 11.4 mph WSW18.3 kmh WSW 19.0 mph30.6 kmh 30.43 in1030.5 mb 0.00 in0.0 mm 0.00 in0.0 mm 0.00 in0.0 mm
03:50 AM 46.6°F8.1°C 39.8°F4.3°C 77% 11.6 mph WSW18.7 kmh WSW 19.0 mph30.6 kmh 30.43 in1030.5 mb 0.00 in0.0 mm 0.00 in0.0 mm 0.00 in0.0 mm
03:55 AM 46.6°F8.1°C 39.8°F4.3°C 77% 11.1 mph WNW17.9 kmh WNW 17.4 mph28.0 kmh 30.42 in1030.1 mb 0.00 in0.0 mm 0.00 in0.0 mm 0.00 in0.0 mm
04:00 AM 46.6°F8.1°C 39.8°F4.3°C 77% 11.1 mph WNW17.9 kmh WNW 18.3 mph29.5 kmh 30.42 in1030.1 mb 0.00 in0.0 mm 0.00 in0.0 mm 0.00 in0.0 mm
04:05 AM 46.6°F8.1°C 39.8°F4.3°C 77% 9.8 mph WNW15.8 kmh WNW 18.3 mph29.5 kmh 30.43 in1030.5 mb 0.00 in0.0 mm 0.00 in0.0 mm 0.00 in0.0 mm
04:10 AM 46.6°F8.1°C 39.8°F4.3°C 77% 9.1 mph W14.6 kmh W 15.9 mph25.6 kmh 30.42 in1030.1 mb 0.00 in0.0 mm 0.00 in0.0 mm 0.00 in0.0 mm
04:15 AM 46.6°F8.1°C 39.8°F4.3°C 77% 10.0 mph NW16.1 kmh NW 15.9 mph25.6 kmh 30.42 in1030.1 mb 0.00 in0.0 mm 0.00 in0.0 mm 0.00 in0.0 mm
04:20 AM 46.6°F8.1°C 39.8°F4.3°C 77% 10.5 mph NW16.9 kmh NW 15.9 mph25.6 kmh 30.41 in1029.8 mb 0.00 in0.0 mm 0.00 in0.0 mm 0.00 in0.0 mm
04:30 AM 46.8°F8.2°C 39.9°F4.4°C 77% 9.2 mph N14.8 kmh N 12.1 mph19.5 kmh 30.42 in1030.1 mb 0.00 in0.0 mm 0.00 in0.0 mm 0.00 in0.0 mm
05:00 AM 46.8°F8.2°C 39.9°F4.4°C 77% 6.9 mph SW11.1 kmh SW 13.0 mph20.9 kmh 30.42 in1030.1 mb 0.00 in0.0 mm 0.00 in0.0 mm 0.00 in0.0 mm
05:30 AM 46.8°F8.2°C 40.3°F4.6°C 78% 9.8 mph NW15.8 kmh NW 12.1 mph19.5 kmh 30.42 in1030.1 mb 0.00 in0.0 mm 0.00 in0.0 mm 0.00 in0.0 mm
06:00 AM 46.6°F8.1°C 40.1°F4.5°C 78% 9.2 mph N14.8 kmh N 11.4 mph18.3 kmh 30.42 in1030.1 mb 0.00 in0.0 mm 0.00 in0.0 mm 0.00 in0.0 mm
06:30 AM 46.8°F8.2°C 40.6°F4.8°C 79% 9.2 mph N14.8 kmh N 13.0 mph20.9 kmh 30.42 in1030.1 mb 0.00 in0.0 mm 0.00 in0.0 mm 0.00 in0.0 mm
07:00 AM 46.9°F8.3°C 41.1°F5.1°C 80% 6.9 mph WNW11.1 kmh WNW 10.7 mph17.2 kmh 30.43 in1030.5 mb 0.00 in0.0 mm 0.00 in0.0 mm 0.00 in0.0 mm
07:30 AM 46.9°F8.3°C 41.1°F5.1°C 80% 10.7 mph WNW17.2 kmh WNW 13.0 mph20.9 kmh 30.43 in1030.5 mb 0.00 in0.0 mm 0.00 in0.0 mm 0.00 in0.0 mm
08:00 AM 46.8°F8.2°C 41.2°F5.1°C 81% 6.9 mph N11.1 kmh N 9.8 mph15.8 kmh 30.44 in1030.8 mb 0.00 in0.0 mm 0.00 in0.0 mm 0.00 in0.0 mm
08:30 AM 46.9°F8.3°C 41.7°F5.4°C 82% 6.9 mph WSW11.1 kmh WSW 9.2 mph14.8 kmh 30.44 in1030.8 mb 0.00 in0.0 mm 0.00 in0.0 mm 0.00 in0.0 mm
09:00 AM 46.8°F8.2°C 41.6°F5.3°C 82% 6.0 mph NW9.7 kmh NW 9.2 mph14.8 kmh 30.45 in1031.2 mb 0.00 in0.0 mm 0.00 in0.0 mm 0.00 in0.0 mm
09:30 AM 47.3°F8.5°C 42.7°F5.9°C 84% 7.6 mph NW12.2 kmh NW 9.2 mph14.8 kmh 30.46 in1031.5 mb 0.00 in0.0 mm 0.00 in0.0 mm 0.00 in0.0 mm
10:00 AM 47.5°F8.6°C 43.2°F6.2°C 85% 6.9 mph W11.1 kmh W 8.3 mph13.4 kmh 30.47 in1031.8 mb 0.00 in0.0 mm 0.00 in0.0 mm 0.00 in0.0 mm
10:30 AM 47.7°F8.7°C 43.4°F6.3°C 85% 3.1 mph W5.0 kmh W 4.5 mph7.2 kmh 30.48 in1032.2 mb 0.00 in0.0 mm 0.00 in0.0 mm 0.00 in0.0 mm
11:00 AM 47.5°F8.6°C 43.2°F6.2°C 85% 3.8 mph WNW6.1 kmh WNW 6.0 mph9.7 kmh 30.48 in1032.2 mb 0.00 in0.0 mm 0.00 in0.0 mm 0.00 in0.0 mm
11:30 AM 47.5°F8.6°C 43.2°F6.2°C 85% 2.2 mph WNW3.5 kmh WNW 3.8 mph6.1 kmh 30.48 in1032.2 mb 0.00 in0.0 mm 0.00 in0.0 mm 0.00 in0.0 mm
12:00 PM 47.8°F8.8°C 42.3°F5.7°C 81% 3.1 mph WNW5.0 kmh WNW 4.5 mph7.2 kmh 30.48 in1032.2 mb 0.00 in0.0 mm 0.00 in0.0 mm 0.00 in0.0 mm
12:30 PM 48.2°F9.0°C 41.3°F5.2°C 77% 5.4 mph WNW8.7 kmh WNW 6.9 mph11.1 kmh 30.49 in1032.5 mb 0.00 in0.0 mm 0.00 in0.0 mm 0.00 in0.0 mm
01:00 PM 48.7°F9.3°C 41.5°F5.3°C 76% 4.5 mph NE7.2 kmh NE 6.0 mph9.7 kmh 30.50 in1032.8 mb 0.00 in0.0 mm 0.00 in0.0 mm 0.00 in0.0 mm
01:30 PM 48.4°F9.1°C 40.8°F4.9°C 75% 9.2 mph WNW14.8 kmh WNW 11.4 mph18.3 kmh 30.50 in1032.8 mb 0.00 in0.0 mm 0.00 in0.0 mm 0.00 in0.0 mm
02:00 PM 47.5°F8.6°C 40.3°F4.6°C 76% 8.3 mph WNW13.4 kmh WNW 9.8 mph15.8 kmh 30.52 in1033.5 mb 0.00 in0.0 mm 0.00 in0.0 mm 0.00 in0.0 mm
02:30 PM 46.9°F8.3°C 39.4°F4.1°C 75% 3.1 mph WNW5.0 kmh WNW 5.4 mph8.7 kmh 30.52 in1033.5 mb 0.00 in0.0 mm 0.00 in0.0 mm 0.00 in0.0 mm
03:00 PM 45.9°F7.7°C 37.7°F3.2°C 73% Calm Calm 0.7 mph1.1 kmh 30.54 in1034.2 mb 0.00 in0.0 mm 0.00 in0.0 mm 0.00 in0.0 mm
03:30 PM 44.2°F6.8°C 36.5°F2.5°C 74% 3.8 mph WNW6.1 kmh WNW 7.6 mph12.2 kmh 30.55 in1034.5 mb 0.00 in0.0 mm 0.00 in0.0 mm 0.00 in0.0 mm
04:00 PM 42.8°F6.0°C 34.7°F1.5°C 73% Calm Calm 0.7 mph1.1 kmh 30.56 in1034.9 mb 0.00 in0.0 mm 0.00 in0.0 mm 0.00 in0.0 mm
04:30 PM 41.4°F5.2°C 34.4°F1.3°C 76% 1.6 mph WNW2.6 kmh WNW 3.1 mph5.0 kmh 30.58 in1035.6 mb 0.00 in0.0 mm 0.00 in0.0 mm 0.00 in0.0 mm
05:00 PM 41.9°F5.5°C 35.5°F1.9°C 78% 1.6 mph W2.6 kmh W 3.1 mph5.0 kmh 30.59 in1035.9 mb 0.00 in0.0 mm 0.00 in0.0 mm 0.00 in0.0 mm
05:30 PM 42.1°F5.6°C 35.4°F1.9°C 77% 10.7 mph N17.2 kmh N 17.4 mph28.0 kmh 30.61 in1036.6 mb 0.00 in0.0 mm 0.00 in0.0 mm 0.00 in0.0 mm
06:00 PM 41.4°F5.2°C 34.4°F1.3°C 76% 2.2 mph SSW3.5 kmh SSW 4.5 mph7.2 kmh 30.61 in1036.6 mb 0.00 in0.0 mm 0.00 in0.0 mm 0.00 in0.0 mm
06:30 PM 41.2°F5.1°C 33.9°F1.1°C 75% 2.2 mph N3.5 kmh N 3.1 mph5.0 kmh 30.62 in1036.9 mb 0.00 in0.0 mm 0.00 in0.0 mm 0.00 in0.0 mm
07:00 PM 39.7°F4.3°C 33.1°F0.6°C 77% 1.6 mph N2.6 kmh N 3.8 mph6.1 kmh 30.62 in1036.9 mb 0.00 in0.0 mm 0.00 in0.0 mm 0.00 in0.0 mm
07:30 PM 40.5°F4.7°C 33.8°F1.0°C 77% 2.2 mph NW3.5 kmh NW 3.1 mph5.0 kmh 30.64 in1037.6 mb 0.00 in0.0 mm 0.00 in0.0 mm 0.00 in0.0 mm
08:00 PM 40.8°F4.9°C 33.8°F1.0°C 76% 6.9 mph WNW11.1 kmh WNW 9.8 mph15.8 kmh 30.65 in1037.9 mb 0.00 in0.0 mm 0.00 in0.0 mm 0.00 in0.0 mm
08:30 PM 40.5°F4.7°C 33.5°F0.8°C 76% 3.1 mph N5.0 kmh N 5.4 mph8.7 kmh 30.66 in1038.3 mb 0.00 in0.0 mm 0.00 in0.0 mm 0.00 in0.0 mm
09:00 PM 40.5°F4.7°C 33.8°F1.0°C 77% 2.2 mph NW3.5 kmh NW 3.1 mph5.0 kmh 30.66 in1038.3 mb 0.00 in0.0 mm 0.00 in0.0 mm 0.00 in0.0 mm
09:30 PM 40.3°F4.6°C 33.6°F0.9°C 77% 1.6 mph N2.6 kmh N 3.8 mph6.1 kmh 30.67 in1038.6 mb 0.00 in0.0 mm 0.00 in0.0 mm 0.00 in0.0 mm
10:00 PM 40.3°F4.6°C 33.6°F0.9°C 77% 1.6 mph NW2.6 kmh NW 3.1 mph5.0 kmh 30.68 in1038.9 mb 0.00 in0.0 mm 0.00 in0.0 mm 0.00 in0.0 mm
10:05 PM 40.3°F4.6°C 33.6°F0.9°C 77% 1.9 mph WNW3.1 kmh WNW 5.4 mph8.7 kmh 30.67 in1038.6 mb 0.00 in0.0 mm 0.00 in0.0 mm 0.00 in0.0 mm
10:10 PM 40.3°F4.6°C 33.3°F0.7°C 76% 2.1 mph NNW3.4 kmh NNW 5.4 mph8.7 kmh 30.67 in1038.6 mb 0.00 in0.0 mm 0.00 in0.0 mm 0.00 in0.0 mm
10:15 PM 40.3°F4.6°C 33.3°F0.7°C 76% 2.2 mph N3.5 kmh N 5.4 mph8.7 kmh 30.67 in1038.6 mb 0.00 in0.0 mm 0.00 in0.0 mm 0.00 in0.0 mm
10:20 PM 40.3°F4.6°C 33.3°F0.7°C 76% 1.8 mph NNW2.9 kmh NNW 5.4 mph8.7 kmh 30.67 in1038.6 mb 0.00 in0.0 mm 0.00 in0.0 mm 0.00 in0.0 mm
10:25 PM 40.3°F4.6°C 33.3°F0.7°C 76% 1.6 mph NNW2.6 kmh NNW 5.4 mph8.7 kmh 30.67 in1038.6 mb 0.00 in0.0 mm 0.00 in0.0 mm 0.00 in0.0 mm
10:30 PM 40.3°F4.6°C 33.3°F0.7°C 76% 1.3 mph NNW2.1 kmh NNW 5.4 mph8.7 kmh 30.68 in1038.9 mb 0.00 in0.0 mm 0.00 in0.0 mm 0.00 in0.0 mm
10:35 PM 40.3°F4.6°C 33.3°F0.7°C 76% 1.1 mph N1.8 kmh N 4.5 mph7.2 kmh 30.68 in1038.9 mb 0.00 in0.0 mm 0.00 in0.0 mm 0.00 in0.0 mm
10:40 PM 40.3°F4.6°C 33.3°F0.7°C 76% 1.2 mph N1.9 kmh N 4.5 mph7.2 kmh 30.68 in1038.9 mb 0.00 in0.0 mm 0.00 in0.0 mm 0.00 in0.0 mm
10:45 PM 40.3°F4.6°C 33.3°F0.7°C 76% 1.4 mph N2.3 kmh N 3.8 mph6.1 kmh 30.68 in1038.9 mb 0.00 in0.0 mm 0.00 in0.0 mm 0.00 in0.0 mm
10:50 PM 40.3°F4.6°C 33.3°F0.7°C 76% 2.6 mph N4.2 kmh N 13.0 mph20.9 kmh 30.68 in1038.9 mb 0.00 in0.0 mm 0.00 in0.0 mm 0.00 in0.0 mm
10:55 PM 40.5°F4.7°C 33.2°F0.7°C 75% 6.6 mph N10.6 kmh N 13.6 mph21.9 kmh 30.69 in1039.3 mb 0.00 in0.0 mm 0.00 in0.0 mm 0.00 in0.0 mm
11:00 PM 40.6°F4.8°C 33.3°F0.7°C 75% 8.5 mph N13.7 kmh N 13.6 mph21.9 kmh 30.68 in1038.9 mb 0.00 in0.0 mm 0.00 in0.0 mm 0.00 in0.0 mm
11:05 PM 40.6°F4.8°C 33.3°F0.7°C 75% 5.4 mph N8.7 kmh N 13.0 mph20.9 kmh 30.69 in1039.3 mb 0.00 in0.0 mm 0.00 in0.0 mm 0.00 in0.0 mm
11:10 PM 40.6°F4.8°C 33.3°F0.7°C 75% 2.5 mph NW4.0 kmh NW 8.3 mph13.4 kmh 30.69 in1039.3 mb 0.00 in0.0 mm 0.00 in0.0 mm 0.00 in0.0 mm
11:15 PM 40.3°F4.6°C 33.0°F0.6°C 75% 1.8 mph NNW2.9 kmh NNW 5.4 mph8.7 kmh 30.69 in1039.3 mb 0.00 in0.0 mm 0.00 in0.0 mm 0.00 in0.0 mm
11:20 PM 40.1°F4.5°C 32.8°F0.4°C 75% 1.8 mph NNW2.9 kmh NNW 5.4 mph8.7 kmh 30.69 in1039.3 mb 0.00 in0.0 mm 0.00 in0.0 mm 0.00 in0.0 mm
11:25 PM 40.1°F4.5°C 33.1°F0.6°C 76% 2.6 mph WNW4.2 kmh WNW 9.2 mph14.8 kmh 30.69 in1039.3 mb 0.00 in0.0 mm 0.00 in0.0 mm 0.00 in0.0 mm
11:30 PM 40.1°F4.5°C 33.1°F0.6°C 76% 2.2 mph WNW3.5 kmh WNW 9.2 mph14.8 kmh 30.69 in1039.3 mb 0.00 in0.0 mm 0.00 in0.0 mm 0.00 in0.0 mm
11:35 PM 40.1°F4.5°C 33.1°F0.6°C 76% 1.4 mph NW2.3 kmh NW 3.8 mph6.1 kmh 30.69 in1039.3 mb 0.00 in0.0 mm 0.00 in0.0 mm 0.00 in0.0 mm
11:40 PM 40.1°F4.5°C 33.1°F0.6°C 76% 1.2 mph NW1.9 kmh NW 3.8 mph6.1 kmh 30.70 in1039.6 mb 0.00 in0.0 mm 0.00 in0.0 mm 0.00 in0.0 mm
11:45 PM 39.9°F4.4°C 33.0°F0.6°C 76% 1.1 mph NW1.8 kmh NW 3.8 mph6.1 kmh 30.69 in1039.3 mb 0.00 in0.0 mm 0.00 in0.0 mm 0.00 in0.0 mm
11:50 PM 39.7°F4.3°C 32.8°F0.4°C 76% 0.9 mph NW1.4 kmh NW 3.8 mph6.1 kmh 30.70 in1039.6 mb 0.00 in0.0 mm 0.00 in0.0 mm 0.00 in0.0 mm
11:55 PM 39.7°F4.3°C 32.8°F0.4°C 76% 0.6 mph NW1.0 kmh NW 3.8 mph6.1 kmh 30.70 in1039.6 mb 0.00 in0.0 mm 0.00 in0.0 mm 0.00 in0.0 mm